Time;durP1;ratioP1;P1;durP2;ratioP2;P2;SDS_P1;SDS_P2;PMS_P1;PMS_P2;Temp;Humidity;BMP_temperature;BMP_pressure;BME280_temperature;BME280_humidity;BME280_pressure;Samples;Min_cycle;Max_cycle;Signal;HPM_P1;HPM_P2
2023/04/06 00:00:08;;;;;;;20.20;15.60;;;;;;;-1.19;100.00;160264.41;5068988;28;20043;-63
2023/04/06 00:02:34;;;;;;;21.35;15.63;;;;;;;-1.28;100.00;160243.00;5070953;28;20079;-62
2023/04/06 00:05:00;;;;;;;19.20;14.93;;;;;;;-1.34;100.00;160226.94;5068877;28;20064;-62
2023/04/06 00:07:26;;;;;;;24.20;16.83;;;;;;;-1.38;100.00;160216.25;5070747;28;20016;-62
2023/04/06 00:09:51;;;;;;;27.83;16.40;;;;;;;-1.40;100.00;160210.88;5068867;28;20499;-62
2023/04/06 00:12:16;;;;;;;22.40;16.45;;;;;;;-1.40;100.00;160210.88;5070464;28;20399;-62
2023/04/06 00:14:42;;;;;;;23.33;16.95;;;;;;;-1.41;100.00;160208.19;5069215;28;20047;-62
2023/04/06 00:17:07;;;;;;;25.25;17.25;;;;;;;-1.41;100.00;160208.19;5070400;28;20380;-62
2023/04/06 00:19:33;;;;;;;18.52;15.30;;;;;;;-1.45;100.00;160197.47;5068589;28;20072;-62
2023/04/06 00:21:59;;;;;;;26.98;15.95;;;;;;;-1.62;100.00;160154.66;5070828;28;20068;-62
2023/04/06 00:24:25;;;;;;;18.98;16.15;;;;;;;-1.55;100.00;160170.72;5069279;28;20051;-62
2023/04/06 00:26:50;;;;;;;26.15;16.63;;;;;;;-1.61;100.00;160157.34;5070025;28;20051;-63
2023/04/06 00:29:16;;;;;;;22.90;16.13;;;;;;;-1.61;100.00;160157.34;5068852;28;20032;-63
2023/04/06 00:31:41;;;;;;;26.70;17.73;;;;;;;-1.58;100.00;160164.03;5070500;28;20017;-62
2023/04/06 00:34:06;;;;;;;23.80;17.67;;;;;;;-1.59;100.00;160161.34;5068558;28;20020;-63
2023/04/06 00:36:32;;;;;;;25.05;17.42;;;;;;;-1.60;100.00;160159.97;5071092;28;20021;-63
2023/04/06 00:38:57;;;;;;;28.88;19.80;;;;;;;-1.61;100.00;160157.34;5070235;28;20063;-63
2023/04/06 00:41:22;;;;;;;23.80;19.00;;;;;;;-1.64;100.00;160149.28;5068518;28;20032;-62
2023/04/06 00:43:48;;;;;;;26.90;16.55;;;;;;;-1.62;100.00;160154.66;5070278;28;20467;-63
2023/04/06 00:46:13;;;;;;;23.70;19.00;;;;;;;-1.67;100.00;160141.25;5068921;28;20082;-64
2023/04/06 00:48:39;;;;;;;25.48;16.75;;;;;;;-1.71;100.00;160129.25;5069926;28;20078;-64
2023/04/06 00:51:04;;;;;;;24.73;18.63;;;;;;;-1.74;100.00;160122.50;5068536;28;20048;-64
2023/04/06 00:53:30;;;;;;;20.88;16.50;;;;;;;-1.75;100.00;160119.88;5070261;28;20017;-64
2023/04/06 00:55:55;;;;;;;28.55;19.13;;;;;;;-1.76;100.00;160117.19;5068377;28;20055;-64
2023/04/06 00:58:20;;;;;;;22.35;17.02;;;;;;;-1.74;100.00;160121.19;5070317;28;20468;-64
2023/04/06 01:00:47;;;;;;;24.08;17.25;;;;;;;-1.74;100.00;160121.19;5068895;28;20040;-64
2023/04/06 01:03:13;;;;;;;25.10;18.40;;;;;;;-1.74;100.00;160122.50;5069731;28;20116;-64
2023/04/06 01:05:40;;;;;;;23.23;17.15;;;;;;;-1.76;100.00;160117.19;5068814;28;20120;-62
2023/04/06 01:08:06;;;;;;;23.77;17.15;;;;;;;-1.77;100.00;160114.50;5069631;28;20032;-62
2023/04/06 01:10:32;;;;;;;23.33;18.73;;;;;;;-1.78;100.00;160111.81;5068580;28;20044;-62
2023/04/06 01:12:57;;;;;;;26.27;17.65;;;;;;;-1.82;100.00;160101.09;5073724;28;20016;-62
2023/04/06 01:15:23;;;;;;;20.70;15.13;;;;;;;-1.76;100.00;160118.50;5072417;28;20037;-62
2023/04/06 01:17:49;;;;;;;27.20;17.80;;;;;;;-1.85;100.00;160093.09;5073161;28;20073;-62
2023/04/06 01:20:14;;;;;;;23.17;17.70;;;;;;;-1.90;100.00;160079.72;5072108;28;20470;-62
2023/04/06 01:22:40;;;;;;;22.33;17.88;;;;;;;-1.96;100.00;160066.31;5073962;28;20029;-62
2023/04/06 01:25:06;;;;;;;25.65;19.10;;;;;;;-1.99;100.00;160056.94;5071311;28;20052;-62
2023/04/06 01:27:31;;;;;;;29.38;19.83;;;;;;;-2.07;100.00;160036.91;5073637;28;20484;-62
2023/04/06 01:29:56;;;;;;;27.80;19.27;;;;;;;-2.12;100.00;160023.47;5071864;28;20037;-62
2023/04/06 01:32:22;;;;;;;31.85;19.08;;;;;;;-2.16;100.00;160012.81;5073174;28;20479;-62
2023/04/06 01:34:47;;;;;;;23.73;18.30;;;;;;;-2.21;100.00;159999.44;5071710;28;20087;-62
2023/04/06 01:37:13;;;;;;;28.67;19.60;;;;;;;-2.24;100.00;159994.06;5073500;28;20028;-63
2023/04/06 01:39:38;;;;;;;28.00;18.00;;;;;;;-2.22;100.00;159996.75;5071631;28;20040;-62
2023/04/06 01:42:03;;;;;;;26.25;18.85;;;;;;;-2.26;100.00;159988.69;5073195;28;20035;-62
2023/04/06 01:44:30;;;;;;;25.83;18.95;;;;;;;-2.24;100.00;159994.06;5072006;28;20036;-62
2023/04/06 01:46:56;;;;;;;23.48;17.30;;;;;;;-2.25;100.00;159990.06;5072846;28;20114;-62
2023/04/06 01:49:21;;;;;;;26.75;16.38;;;;;;;-2.32;100.00;159971.34;5071632;28;20045;-62
2023/04/06 01:51:47;;;;;;;24.35;17.45;;;;;;;-2.30;100.00;159978.03;5072984;28;20505;-61
2023/04/06 01:54:12;;;;;;;23.92;17.20;;;;;;;-2.33;100.00;159968.66;5071742;28;20487;-62
2023/04/06 01:56:37;;;;;;;21.65;18.13;;;;;;;-2.33;100.00;159969.97;5072981;28;20020;-61
2023/04/06 01:59:03;;;;;;;24.17;17.77;;;;;;;-2.34;100.00;159967.28;5071527;28;20031;-61
2023/04/06 02:01:28;;;;;;;26.73;17.75;;;;;;;-2.36;100.00;159961.97;5072993;28;20017;-62
2023/04/06 02:03:54;;;;;;;29.85;18.73;;;;;;;-2.59;100.00;159903.13;5072029;28;20024;-61
2023/04/06 02:06:19;;;;;;;23.70;19.05;;;;;;;-2.49;100.00;159927.16;5071584;28;20427;-63
2023/04/06 02:08:44;;;;;;;25.17;19.55;;;;;;;-2.45;100.00;159937.88;5072900;28;20028;-63
2023/04/06 02:11:10;;;;;;;19.88;17.77;;;;;;;-2.47;100.00;159932.53;5070898;28;20041;-63
2023/04/06 02:13:35;;;;;;;23.17;18.88;;;;;;;-2.45;100.00;159939.22;5072820;28;20039;-62
2023/04/06 02:16:02;;;;;;;26.55;20.30;;;;;;;-2.49;100.00;159927.16;5071053;28;20041;-62
2023/04/06 02:18:28;;;;;;;27.38;21.10;;;;;;;-2.49;100.00;159928.53;5072201;28;20048;-62
2023/04/06 02:20:53;;;;;;;26.45;20.10;;;;;;;-2.51;100.00;159921.84;5070993;28;20059;-62
2023/04/06 02:23:19;;;;;;;18.85;16.85;;;;;;;-2.55;100.00;159913.78;5072481;28;20021;-62
2023/04/06 02:25:44;;;;;;;25.17;19.10;;;;;;;-2.55;100.00;159912.47;5070798;28;20082;-62
2023/04/06 02:28:10;;;;;;;24.60;19.63;;;;;;;-2.58;100.00;159905.81;5072051;28;20020;-62
2023/04/06 02:30:35;;;;;;;26.20;19.83;;;;;;;-2.57;100.00;159908.44;5070889;28;20043;-62
2023/04/06 02:33:01;;;;;;;26.27;17.83;;;;;;;-2.60;100.00;159899.06;5071899;28;20016;-61
2023/04/06 02:35:28;;;;;;;25.48;19.20;;;;;;;-2.62;100.00;159893.75;5070926;28;20570;-61
2023/04/06 02:37:53;;;;;;;24.45;18.30;;;;;;;-2.65;100.00;159887.09;5072139;28;20036;-61
2023/04/06 02:40:19;;;;;;;25.13;18.50;;;;;;;-2.66;100.00;159883.03;5070410;28;20041;-61
2023/04/06 02:42:44;;;;;;;24.63;19.55;;;;;;;-2.68;100.00;159879.03;5072249;28;20028;-61
2023/04/06 02:45:10;;;;;;;23.30;18.35;;;;;;;-2.71;100.00;159871.00;5070370;28;20388;-61
2023/04/06 02:47:35;;;;;;;25.77;20.90;;;;;;;-2.77;100.00;159854.94;5071933;28;20036;-60
2023/04/06 02:50:01;;;;;;;30.20;20.23;;;;;;;-2.74;100.00;159864.31;5070285;28;20403;-61
2023/04/06 02:52:26;;;;;;;23.67;18.45;;;;;;;-2.75;100.00;159860.31;5071847;28;20033;-62
2023/04/06 02:54:52;;;;;;;27.33;17.08;;;;;;;-2.76;100.00;159857.63;5069984;28;20040;-61
2023/04/06 02:57:17;;;;;;;27.35;20.55;;;;;;;-2.79;100.00;159849.63;5071980;28;20020;-61
2023/04/06 02:59:43;;;;;;;27.55;20.08;;;;;;;-2.82;100.00;159841.59;5070186;28;20045;-61
2023/04/06 03:02:08;;;;;;;26.20;19.92;;;;;;;-2.84;100.00;159836.22;5071247;28;20149;-61
2023/04/06 03:04:33;;;;;;;27.10;19.63;;;;;;;-2.89;100.00;159825.56;5070371;28;20523;-61
2023/04/06 03:06:59;;;;;;;30.48;20.63;;;;;;;-2.91;100.00;159818.88;5071478;28;20024;-61
2023/04/06 03:09:24;;;;;;;27.27;20.15;;;;;;;-2.93;100.00;159814.81;5068588;28;20055;-61
2023/04/06 03:11:49;;;;;;;24.52;18.70;;;;;;;-2.92;100.00;159816.19;5071526;28;20012;-61
2023/04/06 03:14:17;;;;;;;24.05;19.40;;;;;;;-2.97;100.00;159802.78;5069966;28;20492;-62
2023/04/06 03:16:42;;;;;;;23.25;19.08;;;;;;;-3.00;100.00;159796.13;5071261;28;20032;-61
2023/04/06 03:19:07;;;;;;;25.83;19.92;;;;;;;-3.07;100.00;159777.41;5069988;28;20025;-61
2023/04/06 03:21:33;;;;;;;30.23;23.08;;;;;;;-3.03;100.00;159789.44;5071425;28;20044;-62
2023/04/06 03:23:58;;;;;;;27.05;19.92;;;;;;;-3.10;100.00;159769.41;5070927;28;20365;-61
2023/04/06 03:26:23;;;;;;;30.00;21.77;;;;;;;-3.05;100.00;159782.75;5069782;28;20125;-60
2023/04/06 03:28:49;;;;;;;30.23;21.52;;;;;;;-3.20;100.00;159745.31;5070786;28;20025;-61
2023/04/06 03:31:14;;;;;;;30.38;19.88;;;;;;;-3.04;100.00;159785.44;5069658;28;20040;-61
2023/04/06 03:33:40;;;;;;;25.55;19.60;;;;;;;-3.09;100.00;159772.09;5070859;28;20012;-60
2023/04/06 03:36:06;;;;;;;33.10;21.08;;;;;;;-3.03;100.00;159788.13;5069260;28;20056;-61
2023/04/06 03:38:32;;;;;;;29.95;21.67;;;;;;;-3.02;100.00;159790.81;5070973;28;20618;-61
2023/04/06 03:40:57;;;;;;;28.38;19.95;;;;;;;-3.01;100.00;159793.44;5069553;28;20051;-61
2023/04/06 03:43:22;;;;;;;29.15;19.92;;;;;;;-2.99;100.00;159797.47;5071056;28;20070;-61
2023/04/06 03:45:48;;;;;;;29.60;20.02;;;;;;;-3.02;100.00;159790.81;5069269;28;20032;-61
2023/04/06 03:48:13;;;;;;;28.63;21.65;;;;;;;-2.99;100.00;159797.47;5071028;28;20024;-61
2023/04/06 03:50:38;;;;;;;27.30;20.38;;;;;;;-3.02;100.00;159790.81;5069416;28;20044;-61
2023/04/06 03:53:04;;;;;;;26.27;20.33;;;;;;;-3.14;100.00;159758.69;5070479;28;20028;-61
2023/04/06 03:55:29;;;;;;;29.88;22.85;;;;;;;-2.98;100.00;159801.47;5068416;28;20043;-61
2023/04/06 03:57:55;;;;;;;26.00;21.05;;;;;;;-3.02;100.00;159790.81;5070583;28;20025;-61
2023/04/06 04:00:20;;;;;;;26.60;20.40;;;;;;;-3.03;100.00;159788.13;5069166;28;20040;-62
2023/04/06 04:02:46;;;;;;;26.05;20.92;;;;;;;-3.02;100.00;159790.81;5070800;28;20408;-62
2023/04/06 04:05:11;;;;;;;28.30;19.75;;;;;;;-3.09;100.00;159772.09;5069174;28;20044;-62
2023/04/06 04:07:36;;;;;;;27.50;19.38;;;;;;;-3.28;100.00;159722.63;5070361;28;20032;-62
2023/04/06 04:10:02;;;;;;;25.40;19.65;;;;;;;-3.09;100.00;159772.09;5068851;28;20053;-63
2023/04/06 04:12:27;;;;;;;28.75;20.52;;;;;;;-3.14;100.00;159758.69;5070553;28;20029;-59
2023/04/06 04:14:53;;;;;;;35.05;21.60;;;;;;;-3.19;100.00;159746.66;5068570;28;20045;-59
2023/04/06 04:17:18;;;;;;;27.10;19.65;;;;;;;-3.21;100.00;159742.66;5070622;28;20538;-60
2023/04/06 04:19:43;;;;;;;26.58;19.77;;;;;;;-3.20;100.00;159743.97;5068384;28;20056;-59
2023/04/06 04:22:09;;;;;;;28.70;21.42;;;;;;;-3.22;100.00;159739.97;5069984;28;20024;-59
2023/04/06 04:24:34;;;;;;;48.95;24.92;;;;;;;-3.25;100.00;159731.97;5068788;28;20041;-59
2023/04/06 04:27:02;;;;;;;27.42;20.55;;;;;;;-3.24;100.00;159733.28;5070087;28;20028;-59
2023/04/06 04:29:28;;;;;;;30.25;21.48;;;;;;;-3.26;100.00;159727.94;5049246;28;20040;-59
2023/04/06 04:31:53;;;;;;;25.08;20.42;;;;;;;-3.27;100.00;159726.63;5050047;28;20017;-59
2023/04/06 04:34:24;;;;;;;27.35;19.38;;;;;;;-3.22;100.00;159739.97;5049197;28;20017;-59
2023/04/06 04:36:50;;;;;;;28.65;21.05;;;;;;;-3.31;100.00;159714.56;5050470;28;20399;-59
2023/04/06 04:39:16;;;;;;;27.40;20.88;;;;;;;-3.13;100.00;159762.72;5048638;28;20036;-59
2023/04/06 04:41:41;;;;;;;32.30;21.42;;;;;;;-3.12;100.00;159765.34;5067448;28;20024;-60
2023/04/06 04:44:06;;;;;;;30.77;21.85;;;;;;;-3.14;100.00;159758.69;5068474;28;20040;-59
2023/04/06 04:46:32;;;;;;;29.15;19.35;;;;;;;-3.21;100.00;159741.34;5072066;28;20025;-59
2023/04/06 04:48:57;;;;;;;30.05;22.33;;;;;;;-3.09;100.00;159772.09;5073974;28;20549;-59
2023/04/06 04:51:24;;;;;;;30.15;23.17;;;;;;;-3.06;100.00;159780.06;5072834;28;20063;-59
2023/04/06 04:53:49;;;;;;;26.27;20.17;;;;;;;-3.07;100.00;159777.41;5073844;28;20048;-59
2023/04/06 04:56:15;;;;;;;29.27;22.23;;;;;;;-3.05;100.00;159782.75;5072864;28;20407;-60
2023/04/06 04:58:40;;;;;;;27.50;19.35;;;;;;;-3.08;100.00;159774.72;5074560;28;20024;-59
2023/04/06 05:01:05;;;;;;;35.13;22.08;;;;;;;-3.11;100.00;159766.72;5063220;28;20187;-59
2023/04/06 05:03:32;;;;;;;30.50;19.25;;;;;;;-3.13;100.00;159761.34;5061200;28;20032;-59
2023/04/06 05:05:58;;;;;;;29.60;20.27;;;;;;;-3.12;100.00;159764.03;5063422;28;20060;-59
2023/04/06 05:08:23;;;;;;;31.23;21.33;;;;;;;-3.12;100.00;159764.03;5065125;28;20075;-59
2023/04/06 05:10:49;;;;;;;26.67;20.85;;;;;;;-3.09;100.00;159772.09;5064925;28;20507;-59
2023/04/06 05:13:15;;;;;;;24.85;20.02;;;;;;;-3.03;100.00;159788.13;5063806;28;20389;-59
2023/04/06 05:15:40;;;;;;;25.30;19.90;;;;;;;-3.00;100.00;159796.13;5060735;28;20074;-59
2023/04/06 05:18:07;;;;;;;28.25;20.60;;;;;;;-3.01;100.00;159792.13;5061296;28;20095;-59
2023/04/06 05:20:33;;;;;;;28.38;20.55;;;;;;;-2.99;100.00;159797.47;5058992;28;20084;-59
2023/04/06 05:22:59;;;;;;;24.00;19.55;;;;;;;-2.86;100.00;159832.22;5060243;28;20056;-59
2023/04/06 05:25:24;;;;;;;26.63;20.58;;;;;;;-2.80;100.00;159848.28;5058528;28;20041;-59
2023/04/06 05:27:50;;;;;;;25.80;20.05;;;;;;;-2.94;100.00;159810.84;5053613;28;20035;-59
2023/04/06 05:30:15;;;;;;;29.25;18.83;;;;;;;-2.67;100.00;159881.72;5051637;28;20090;-59
2023/04/06 05:32:42;;;;;;;29.40;22.50;;;;;;;-2.58;100.00;159905.81;5053782;28;20361;-59
2023/04/06 05:35:08;;;;;;;26.15;20.83;;;;;;;-2.60;100.00;159900.44;5051851;28;20411;-59
2023/04/06 05:37:33;;;;;;;26.30;21.00;;;;;;;-2.53;100.00;159916.47;5052206;28;20033;-59
2023/04/06 05:39:58;;;;;;;24.60;20.38;;;;;;;-2.33;100.00;159968.66;5051869;28;20142;-59
2023/04/06 05:42:24;;;;;;;27.27;21.67;;;;;;;-2.25;100.00;159991.38;5053662;28;20025;-59
2023/04/06 05:44:49;;;;;;;24.45;20.13;;;;;;;-2.14;100.00;160018.16;5051327;28;20041;-59
2023/04/06 05:47:14;;;;;;;23.05;19.80;;;;;;;-2.04;100.00;160044.88;5053440;28;20028;-59
2023/04/06 05:49:41;;;;;;;24.20;19.65;;;;;;;-1.95;100.00;160069.00;5051798;28;20400;-60
2023/04/06 05:52:07;;;;;;;31.55;20.40;;;;;;;-1.87;100.00;160087.72;5052535;28;20041;-60
2023/04/06 05:54:33;;;;;;;29.10;21.48;;;;;;;-1.77;100.00;160114.50;5051903;28;20083;-60
2023/04/06 05:56:58;;;;;;;25.38;21.05;;;;;;;-1.66;100.00;160143.94;5051645;28;20423;-60
2023/04/06 05:59:23;;;;;;;24.77;21.05;;;;;;;-1.57;100.00;160165.34;5051502;28;20040;-60
2023/04/06 06:01:49;;;;;;;28.13;19.38;;;;;;;-1.46;100.00;160196.13;5052825;28;20028;-60
2023/04/06 06:04:14;;;;;;;29.77;21.10;;;;;;;-1.32;100.00;160232.31;5051465;28;20071;-60
2023/04/06 06:06:39;;;;;;;21.33;18.40;;;;;;;-1.23;100.00;160255.03;5052676;28;20021;-61
2023/04/06 06:09:05;;;;;;;27.75;20.40;;;;;;;-1.17;100.00;160269.78;5051230;28;20028;-60
2023/04/06 06:11:30;;;;;;;31.15;20.88;;;;;;;-1.08;100.00;160293.84;5052899;28;20091;-60
2023/04/06 06:13:56;;;;;;;25.30;20.48;;;;;;;-0.79;100.00;160368.88;5052438;28;20021;-61
2023/04/06 06:16:21;;;;;;;27.00;21.00;;;;;;;-0.63;100.00;160410.38;5051472;28;20060;-60
2023/04/06 06:18:47;;;;;;;23.70;18.17;;;;;;;-0.49;100.00;160446.56;5052513;28;20029;-60
2023/04/06 06:21:12;;;;;;;25.05;18.02;;;;;;;-0.22;100.00;160516.22;5050909;28;20510;-60
2023/04/06 06:23:38;;;;;;;33.20;20.80;;;;;;;-0.02;100.00;160569.81;5052682;28;20021;-60
2023/04/06 06:26:04;;;;;;;30.35;23.55;;;;;;;0.16;100.00;160615.41;5050517;28;20095;-61
2023/04/06 06:28:29;;;;;;;23.85;20.33;;;;;;;0.38;100.00;160671.69;5052158;28;20040;-60
2023/04/06 06:30:55;;;;;;;34.40;20.83;;;;;;;0.59;100.00;160726.66;5050843;28;20524;-61
2023/04/06 06:33:20;;;;;;;33.30;21.48;;;;;;;0.79;100.00;160780.28;5052529;28;20024;-60
2023/04/06 06:35:46;;;;;;;34.65;22.10;;;;;;;0.99;100.00;160829.91;5050687;28;20127;-60
2023/04/06 06:38:11;;;;;;;28.42;18.98;;;;;;;1.18;100.00;160880.84;5052199;28;20032;-60
2023/04/06 06:40:36;;;;;;;26.70;20.08;;;;;;;1.39;100.00;160935.84;5051025;28;20041;-60
2023/04/06 06:43:02;;;;;;;24.88;17.52;;;;;;;1.61;100.00;160990.81;5051640;28;20028;-60
2023/04/06 06:45:29;;;;;;;26.83;19.80;;;;;;;1.85;100.00;161053.94;5062336;28;20569;-60
2023/04/06 06:47:54;;;;;;;25.05;19.88;;;;;;;2.00;100.00;161092.81;5072088;28;20024;-60
2023/04/06 06:50:20;;;;;;;26.10;19.92;;;;;;;2.13;100.00;161127.72;5070171;28;20094;-61
2023/04/06 06:52:45;;;;;;;29.85;19.83;;;;;;;2.25;100.00;161158.59;5072010;28;20021;-61
2023/04/06 06:55:11;;;;;;;26.55;20.65;;;;;;;2.42;100.00;161202.88;5067204;28;20029;-61
2023/04/06 06:57:36;;;;;;;30.50;18.75;;;;;;;2.58;100.00;161243.16;5054962;28;20036;-60
2023/04/06 07:00:02;;;;;;;26.48;18.05;;;;;;;2.75;100.00;161288.81;5050109;28;20512;-60
2023/04/06 07:02:28;;;;;;;25.00;19.63;;;;;;;2.92;100.00;161331.78;5056436;28;20033;-61
2023/04/06 07:04:53;;;;;;;28.63;18.77;;;;;;;3.04;100.00;161364.00;5067863;28;20424;-60
2023/04/06 07:07:18;;;;;;;25.40;18.33;;;;;;;3.22;100.00;161409.69;5070588;28;20020;-60
2023/04/06 07:09:44;;;;;;;27.23;19.42;;;;;;;3.36;100.00;161447.31;5069236;28;20514;-60
2023/04/06 07:12:09;;;;;;;27.67;18.70;;;;;;;3.53;100.00;161490.31;5071051;28;20024;-60
2023/04/06 07:14:36;;;;;;;29.58;19.67;;;;;;;3.77;100.00;161554.75;5069853;28;20033;-60
2023/04/06 07:17:01;;;;;;;23.10;18.92;;;;;;;4.13;100.00;161648.81;5071482;28;20068;-60
2023/04/06 07:19:27;;;;;;;23.48;17.35;;;;;;;4.44;100.00;161729.47;5069959;28;20089;-60
2023/04/06 07:21:52;;;;;;;28.20;18.15;;;;;;;4.89;100.00;161845.09;5071038;28;20029;-60
2023/04/06 07:24:17;;;;;;;22.50;18.67;;;;;;;5.39;100.00;161976.97;5069996;28;20024;-60
2023/04/06 07:26:43;;;;;;;25.67;17.00;;;;;;;5.70;100.00;162057.63;5071460;28;20035;-59
2023/04/06 07:29:08;;;;;;;25.92;15.25;;;;;;;6.51;100.00;162269.00;5069276;28;20392;-60
2023/04/06 07:31:35;;;;;;;20.52;18.08;;;;;;;7.30;100.00;162475.03;5071260;28;20081;-60
2023/04/06 07:34:00;;;;;;;25.88;16.38;;;;;;;8.16;100.00;162698.66;5069591;28;20527;-60
2023/04/06 07:36:26;;;;;;;22.15;17.75;;;;;;;9.04;100.00;162929.25;5071107;28;20025;-60
2023/04/06 07:38:51;;;;;;;22.40;15.95;;;;;;;9.78;100.00;163122.16;5071190;28;20024;-60
2023/04/06 07:41:16;;;;;;;20.65;16.42;;;;;;;10.36;100.00;163273.25;5068688;28;20032;-60
2023/04/06 07:43:42;;;;;;;19.58;16.27;;;;;;;10.62;100.00;163340.78;5050583;28;20029;-60
2023/04/06 07:46:07;;;;;;;27.67;17.58;;;;;;;10.25;100.00;163244.94;5049404;28;20045;-60
2023/04/06 07:48:33;;;;;;;21.35;15.50;;;;;;;10.61;100.00;163339.44;5051125;28;20032;-60
2023/04/06 07:51:03;;;;;;;16.25;13.00;;;;;;;10.84;100.00;163397.47;5049132;28;20499;-60
2023/04/06 07:53:28;;;;;;;20.52;14.25;;;;;;;11.09;100.00;163465.00;5051054;28;20031;-60
2023/04/06 07:55:55;;;;;;;20.08;14.32;;;;;;;11.28;100.00;163513.63;5049401;28;20037;-60
2023/04/06 07:58:20;;;;;;;16.75;13.43;;;;;;;11.28;100.00;163513.63;5050587;28;20032;-60
2023/04/06 08:00:46;;;;;;;20.58;16.33;;;;;;;10.85;100.00;163401.56;5049626;28;20041;-60
2023/04/06 08:03:11;;;;;;;24.25;13.70;;;;;;;11.14;100.00;163477.16;5050576;28;20017;-60
2023/04/06 08:05:36;;;;;;;21.17;14.35;;;;;;;10.84;100.00;163397.47;5049005;28;20033;-60
2023/04/06 08:08:02;;;;;;;24.70;13.85;;;;;;;11.67;100.00;163616.22;5050720;28;20017;-59
2023/04/06 08:10:28;;;;;;;23.48;13.82;;;;;;;10.88;100.00;163408.28;5049367;28;20041;-60
2023/04/06 08:12:53;;;;;;;19.38;14.40;;;;;;;11.09;100.00;163463.66;5050251;28;20065;-60
2023/04/06 08:15:18;;;;;;;24.45;13.32;;;;;;;11.03;100.00;163447.44;5049240;28;20403;-60
2023/04/06 08:17:44;;;;;;;20.55;13.75;;;;;;;11.18;100.00;163487.94;5050824;28;20032;-60
2023/04/06 08:20:09;;;;;;;23.77;15.63;;;;;;;10.70;100.00;163361.06;5048356;28;20057;-60
2023/04/06 08:22:35;;;;;;;25.88;15.20;;;;;;;10.40;100.00;163284.09;5049277;28;20025;-60
2023/04/06 08:25:00;;;;;;;17.60;14.63;;;;;;;10.05;100.00;163192.28;5049046;28;20053;-60
2023/04/06 08:27:26;;;;;;;21.65;15.57;;;;;;;10.16;100.00;163221.94;5050314;28;20083;-60
2023/04/06 08:29:51;;;;;;;21.02;13.80;;;;;;;10.10;100.00;163205.78;5048759;28;20079;-60
2023/04/06 08:32:16;;;;;;;19.67;15.60;;;;;;;10.34;100.00;163266.53;5050600;28;20024;-60
2023/04/06 08:34:42;;;;;;;20.67;15.95;;;;;;;10.32;100.00;163262.44;5048688;28;20110;-60
2023/04/06 08:37:07;;;;;;;20.23;15.48;;;;;;;10.47;100.00;163303.00;5050197;28;20086;-60
2023/04/06 08:39:33;;;;;;;23.00;15.07;;;;;;;10.25;100.00;163243.56;5049234;28;20036;-60
2023/04/06 08:42:02;;;;;;;19.73;14.52;;;;;;;10.08;100.00;163200.41;5056689;28;20484;-60
2023/04/06 08:44:28;;;;;;;19.77;15.32;;;;;;;10.05;100.00;163192.28;5068970;28;20041;-60
2023/04/06 08:46:54;;;;;;;21.48;15.02;;;;;;;10.41;100.00;163286.81;5067902;28;20031;-60
2023/04/06 08:49:20;;;;;;;17.73;14.13;;;;;;;10.56;100.00;163324.59;5068260;28;20037;-60
2023/04/06 08:51:47;;;;;;;20.77;13.73;;;;;;;10.53;100.00;163316.53;5070511;28;20228;-60
2023/04/06 08:54:12;;;;;;;21.75;14.82;;;;;;;10.53;100.00;163317.84;5069140;28;20016;-60
2023/04/06 08:56:39;;;;;;;17.88;14.05;;;;;;;10.40;100.00;163282.78;5063398;28;20031;-60
2023/04/06 08:59:06;;;;;;;21.02;16.38;;;;;;;10.49;100.00;163307.06;5063180;28;20073;-59
2023/04/06 09:01:36;;;;;;;21.30;14.82;;;;;;;10.50;100.00;163309.72;5070283;28;20025;-59
2023/04/06 09:04:04;;;;;;;20.98;15.48;;;;;;;10.59;100.00;163332.72;5068017;28;20030;-59
2023/04/06 09:06:30;;;;;;;26.92;16.75;;;;;;;10.50;100.00;163308.41;5070340;28;20391;-59
2023/04/06 09:08:56;;;;;;;23.05;14.25;;;;;;;10.43;100.00;163292.22;5065638;28;20069;-59
2023/04/06 09:11:22;;;;;;;18.85;13.07;;;;;;;10.63;100.00;163343.50;5067249;28;20074;-60
2023/04/06 09:13:49;;;;;;;25.35;16.17;;;;;;;10.82;100.00;163392.09;5070202;28;20025;-59
2023/04/06 09:16:15;;;;;;;20.73;13.77;;;;;;;10.67;100.00;163354.31;5068541;28;20036;-59
2023/04/06 09:18:40;;;;;;;24.17;16.05;;;;;;;11.03;100.00;163448.81;5069815;28;20458;-59
2023/04/06 09:21:08;;;;;;;18.75;15.05;;;;;;;11.20;100.00;163493.34;5068488;28;20059;-59
2023/04/06 09:23:34;;;;;;;23.33;13.60;;;;;;;10.99;100.00;163436.66;5070105;28;20020;-59
2023/04/06 09:26:12;;;;;;;24.67;17.42;;;;;;;10.69;100.00;163358.34;5067979;28;20039;-59
2023/04/06 09:28:45;;;;;;;25.38;16.88;;;;;;;10.79;100.00;163386.69;5070221;28;20107;-59
2023/04/06 09:31:10;;;;;;;22.95;15.70;;;;;;;10.84;100.00;163398.84;5068417;28;20047;-59
2023/04/06 09:33:44;;;;;;;20.20;15.73;;;;;;;10.95;100.00;163427.19;5073090;28;20024;-59
2023/04/06 09:36:10;;;;;;;21.33;15.57;;;;;;;11.18;100.00;163486.59;5071921;28;20041;-59
2023/04/06 09:38:51;;;;;;;24.02;18.75;;;;;;;11.37;100.00;163536.56;5073522;28;20028;-58
2023/04/06 09:41:28;;;;;;;18.73;15.07;;;;;;;11.48;100.00;163564.94;5071601;28;20101;-58
2023/04/06 09:44:06;;;;;;;21.95;14.68;;;;;;;11.60;100.00;163597.31;5073388;28;20020;-59
2023/04/06 09:46:37;;;;;;;23.77;14.95;;;;;;;12.02;100.00;163708.19;5072203;28;20115;-59
2023/04/06 09:49:03;;;;;;;19.42;15.95;;;;;;;12.31;100.00;163783.84;5070012;28;20411;-59
2023/04/06 09:51:31;;;;;;;20.05;15.60;;;;;;;12.76;100.00;163901.38;5073371;28;20107;-59
2023/04/06 09:54:01;;;;;;;20.98;15.73;;;;;;;13.30;100.00;164042.00;5073040;28;20025;-59
2023/04/06 09:56:30;;;;;;;17.20;15.13;;;;;;;13.96;100.00;164215.13;5051971;28;20132;-59
2023/04/06 09:59:01;;;;;;;20.80;14.90;;;;;;;13.95;100.00;164213.78;5053039;28;20025;-59
2023/04/06 10:01:30;;;;;;;26.58;18.92;;;;;;;13.75;100.00;164161.03;5071927;28;20038;-59
2023/04/06 10:04:07;;;;;;;;;;;;;;;13.70;100.00;164146.16;5073024;28;20044;-59
2023/04/06 10:06:35;;;;;;;22.40;16.95;;;;;;;13.37;100.00;164059.53;5051776;28;19940;-59
2023/04/06 10:09:03;;;;;;;23.75;16.35;;;;;;;13.60;100.00;164121.78;5052704;28;20624;-59
2023/04/06 10:11:28;;;;;;;24.75;17.50;;;;;;;14.07;100.00;164243.53;5071410;28;20511;-59
2023/04/06 10:13:55;;;;;;;18.88;16.13;;;;;;;14.13;100.00;164259.75;5072564;28;20017;-59
2023/04/06 10:16:22;;;;;;;19.65;15.35;;;;;;;13.99;100.00;164221.88;5070428;28;20040;-59
2023/04/06 10:18:52;;;;;;;21.20;16.52;;;;;;;14.09;100.00;164248.94;5072314;28;20021;-59
2023/04/06 10:21:23;;;;;;;20.13;13.45;;;;;;;14.02;100.00;164230.03;5071130;28;20159;-59
2023/04/06 10:23:51;;;;;;;21.52;14.82;;;;;;;13.56;100.00;164111.00;5071977;28;20054;-59
2023/04/06 10:26:20;;;;;;;;;;;;;;;13.51;100.00;164096.13;5070993;28;20040;-59
2023/04/06 10:28:46;;;;;;;;;;;;;;;13.23;100.00;164024.38;5072812;28;20010;-59
2023/04/06 10:31:12;;;;;;;25.17;17.92;;;;;;;12.79;100.00;163908.13;5067263;28;20455;-59
2023/04/06 10:33:37;;;;;;;22.17;15.48;;;;;;;12.55;100.00;163845.97;5070151;28;20028;-59
2023/04/06 10:36:22;;;;;;;18.77;15.30;;;;;;;12.81;100.00;163913.56;5069977;28;20098;-59
2023/04/06 10:38:54;;;;;;;22.70;17.95;;;;;;;13.50;100.00;164094.78;5071621;28;20488;-59
2023/04/06 10:41:20;;;;;;;28.65;18.73;;;;;;;13.88;100.00;164193.47;5070262;28;20120;-59
2023/04/06 10:43:55;;;;;;;21.33;16.65;;;;;;;13.96;100.00;164216.47;5064106;28;20017;-59
2023/04/06 10:46:28;;;;;;;19.98;15.48;;;;;;;14.11;100.00;164254.38;5050533;28;20066;-59
2023/04/06 10:48:53;;;;;;;26.23;18.23;;;;;;;14.14;100.00;164261.13;5051438;28;20051;-59
2023/04/06 10:51:26;;;;;;;24.50;18.08;;;;;;;14.39;100.00;164327.41;5066115;28;20499;-59
2023/04/06 10:53:53;;;;;;;24.98;18.25;;;;;;;14.26;100.00;164294.91;5071719;28;20021;-59
2023/04/06 10:56:22;;;;;;;24.83;18.35;;;;;;;14.06;100.00;164240.81;5069997;28;20041;-59
2023/04/06 10:58:52;;;;;;;;;;;;;;;14.08;100.00;164246.25;5072496;28;20035;-59